createdAt,value
2022-12-08T00:01:34.735Z,12.52
2022-12-08T00:04:04.356Z,12.75
2022-12-08T00:07:02.668Z,16.80
2022-12-08T00:09:40.736Z,11.73
2022-12-08T00:12:11.567Z,11.82
2022-12-08T00:14:47.630Z,13.88
2022-12-08T00:17:16.973Z,12.93
2022-12-08T00:19:45.082Z,15.50
2022-12-08T00:22:14.776Z,13.63
2022-12-08T00:24:45.576Z,17.20
2022-12-08T00:27:16.219Z,9.98
2022-12-08T00:29:45.511Z,11.85
2022-12-08T00:32:14.531Z,10.35
2022-12-08T00:34:42.179Z,13.63
2022-12-08T00:37:09.763Z,13.13
2022-12-08T00:39:37.413Z,9.73
2022-12-08T00:42:14.227Z,12.68
2022-12-08T00:44:44.647Z,10.18
2022-12-08T00:47:14.297Z,10.68
2022-12-08T00:49:42.356Z,11.00
2022-12-08T00:52:10.061Z,10.85
2022-12-08T00:54:37.752Z,12.27
2022-12-08T00:57:05.395Z,9.77
2022-12-08T00:59:33.098Z,11.57
2022-12-08T01:02:00.868Z,13.20
2022-12-08T01:04:28.550Z,19.35
2022-12-08T01:06:56.206Z,13.60
2022-12-08T01:09:23.828Z,9.30
2022-12-08T01:11:51.549Z,10.23
2022-12-08T01:14:19.187Z,13.10
2022-12-08T01:16:47.267Z,9.45
2022-12-08T01:19:17.097Z,12.63
2022-12-08T01:21:46.275Z,10.15
2022-12-08T01:24:20.595Z,16.50
2022-12-08T01:26:50.298Z,14.20
2022-12-08T01:29:18.335Z,11.88
2022-12-08T01:31:45.976Z,7.20
2022-12-08T01:34:14.130Z,8.68
2022-12-08T01:36:44.265Z,7.65
2022-12-08T01:39:17.609Z,9.75
2022-12-08T01:41:47.697Z,10.25
2022-12-08T01:44:15.317Z,10.77
2022-12-08T01:46:50.092Z,8.27
2022-12-08T01:49:27.063Z,9.70
2022-12-08T01:51:59.182Z,11.85
2022-12-08T01:54:32.167Z,14.88
2022-12-08T01:57:08.678Z,12.18
2022-12-08T01:59:42.502Z,11.90
2022-12-08T02:02:11.734Z,10.50
2022-12-08T02:04:39.511Z,10.10
2022-12-08T02:07:10.248Z,11.57
2022-12-08T02:09:38.945Z,12.45
2022-12-08T02:12:07.493Z,10.30
2022-12-08T02:14:35.763Z,14.65
2022-12-08T02:17:43.698Z,10.93
2022-12-08T02:20:30.208Z,11.88
2022-12-08T02:23:24.206Z,11.55
2022-12-08T02:26:14.650Z,9.80
2022-12-08T02:29:39.767Z,6.40
2022-12-08T02:32:37.469Z,5.78
2022-12-08T02:35:54.203Z,12.55
2022-12-08T02:38:29.485Z,8.43
2022-12-08T02:41:40.439Z,5.88
2022-12-08T02:44:16.807Z,11.77
2022-12-08T02:46:59.211Z,5.70
2022-12-08T02:49:33.329Z,12.75
2022-12-08T02:52:13.917Z,7.15
2022-12-08T02:54:50.702Z,13.50
2022-12-08T02:57:47.354Z,7.35
2022-12-08T03:00:19.167Z,9.57
2022-12-08T03:03:09.835Z,9.98
2022-12-08T03:05:58.196Z,9.88
2022-12-08T03:09:02.821Z,11.13
2022-12-08T03:12:01.532Z,11.18
2022-12-08T03:14:31.794Z,11.63
2022-12-08T03:17:00.922Z,12.32
2022-12-08T03:19:34.967Z,11.25
2022-12-08T03:22:05.672Z,15.45
2022-12-08T03:24:38.690Z,11.20
2022-12-08T03:27:22.946Z,12.20
2022-12-08T03:29:54.340Z,19.40
2022-12-08T03:32:52.075Z,19.08
2022-12-08T03:35:26.639Z,14.90
2022-12-08T03:38:11.862Z,10.50
2022-12-08T03:40:40.419Z,16.05
2022-12-08T03:43:08.262Z,19.45
2022-12-08T03:45:35.891Z,13.15
2022-12-08T03:48:03.705Z,9.52
2022-12-08T03:50:31.360Z,13.77
2022-12-08T03:52:59.017Z,8.27
2022-12-08T03:55:26.586Z,13.82
2022-12-08T03:57:54.227Z,7.00
2022-12-08T04:00:22.216Z,6.75
2022-12-08T04:02:49.858Z,8.98
2022-12-08T04:05:17.570Z,7.63
2022-12-08T04:07:45.338Z,9.98
2022-12-08T04:10:13.037Z,6.93
2022-12-08T04:12:40.710Z,7.15
2022-12-08T04:15:09.410Z,4.60
2022-12-08T04:17:37.230Z,7.63
2022-12-08T04:20:05.944Z,7.03
2022-12-08T04:22:33.799Z,6.32
2022-12-08T04:25:02.180Z,6.28
2022-12-08T04:27:29.756Z,6.13
2022-12-08T04:29:57.356Z,9.68
2022-12-08T04:32:25.043Z,8.27
2022-12-08T04:34:52.639Z,12.65
2022-12-08T04:37:20.295Z,12.00
2022-12-08T04:39:47.891Z,11.25
2022-12-08T04:42:15.544Z,13.65
2022-12-08T04:44:43.137Z,16.17
2022-12-08T04:47:10.967Z,14.57
2022-12-08T04:49:38.657Z,20.38
2022-12-08T04:52:06.373Z,14.02
2022-12-08T04:54:34.140Z,17.17
2022-12-08T04:57:01.905Z,13.02
2022-12-08T04:59:29.806Z,12.13
2022-12-08T05:01:57.446Z,17.52
2022-12-08T05:04:25.308Z,16.98
2022-12-08T05:06:52.885Z,14.43
2022-12-08T05:09:20.479Z,11.65
2022-12-08T05:11:49.216Z,19.33
2022-12-08T05:14:18.852Z,15.32
2022-12-08T05:16:47.166Z,17.80
2022-12-08T05:19:16.188Z,13.70
2022-12-08T05:21:44.078Z,13.30
2022-12-08T05:24:12.020Z,14.55
2022-12-08T05:26:39.711Z,14.52
2022-12-08T05:29:07.368Z,13.65
2022-12-08T05:31:35.019Z,13.43
2022-12-08T05:34:03.586Z,16.10
2022-12-08T05:36:31.316Z,13.15
2022-12-08T05:38:59.304Z,13.75
2022-12-08T05:41:26.867Z,15.13
2022-12-08T05:43:54.551Z,17.40
2022-12-08T05:46:22.462Z,13.70
2022-12-08T05:48:50.125Z,16.65
2022-12-08T05:51:24.040Z,17.65
2022-12-08T05:53:52.858Z,20.45
2022-12-08T05:56:21.527Z,18.60
2022-12-08T05:58:49.736Z,19.55
2022-12-08T06:01:25.857Z,18.38
2022-12-08T06:03:54.195Z,19.38
2022-12-08T06:06:22.268Z,23.60
2022-12-08T06:08:50.138Z,20.33
2022-12-08T06:11:32.294Z,15.43
2022-12-08T06:14:00.409Z,18.23
2022-12-08T06:16:29.079Z,13.13
2022-12-08T06:18:57.328Z,12.23
2022-12-08T06:21:25.275Z,15.73
2022-12-08T06:23:54.435Z,10.23
2022-12-08T06:26:22.713Z,13.30
2022-12-08T06:28:51.541Z,16.98
2022-12-08T06:31:27.002Z,9.85
2022-12-08T06:36:28.187Z,7.55
2022-12-08T06:38:56.506Z,11.38
2022-12-08T06:41:24.895Z,5.68
2022-12-08T06:43:52.595Z,4.95
2022-12-08T06:46:20.689Z,5.70
2022-12-08T06:48:50.479Z,3.72
2022-12-08T06:51:20.992Z,4.72
2022-12-08T06:53:48.987Z,5.47
2022-12-08T06:56:20.038Z,4.32
2022-12-08T06:58:52.400Z,3.92
2022-12-08T07:01:20.847Z,4.47
2022-12-08T07:03:48.894Z,4.28
2022-12-08T07:06:25.444Z,3.00
2022-12-08T07:08:53.469Z,5.50
2022-12-08T07:11:22.269Z,5.72
2022-12-08T07:13:50.606Z,6.32
2022-12-08T07:16:18.700Z,7.55
2022-12-08T07:18:46.492Z,4.80
2022-12-08T07:21:15.285Z,5.00
2022-12-08T07:23:46.255Z,6.03
2022-12-08T07:26:14.713Z,11.23
2022-12-08T07:28:43.194Z,5.40
2022-12-08T07:31:21.532Z,6.30
2022-12-08T07:33:50.324Z,7.35
2022-12-08T07:36:18.659Z,8.77
2022-12-08T07:38:46.501Z,8.20
2022-12-08T07:41:16.723Z,19.90
2022-12-08T07:43:44.575Z,4.28
2022-12-08T07:46:18.730Z,7.30
2022-12-08T07:48:47.564Z,5.32
2022-12-08T07:51:16.941Z,13.02
2022-12-08T07:53:53.146Z,13.38
2022-12-08T07:56:22.125Z,7.63
2022-12-08T07:58:50.060Z,9.68
2022-12-08T08:01:30.399Z,10.98
2022-12-08T08:04:04.808Z,11.00
2022-12-08T08:06:34.755Z,6.38
2022-12-08T08:09:02.582Z,10.20
2022-12-08T08:11:30.514Z,6.18
2022-12-08T08:13:58.584Z,6.30
2022-12-08T08:16:26.349Z,8.35
2022-12-08T08:18:54.506Z,8.55
2022-12-08T08:21:44.301Z,6.43
2022-12-08T08:24:10.436Z,6.43
2022-12-08T08:26:38.232Z,12.05
2022-12-08T08:29:06.184Z,10.98
2022-12-08T08:31:34.106Z,10.82
2022-12-08T08:34:06.500Z,9.40
2022-12-08T08:36:34.593Z,8.20
2022-12-08T08:39:03.398Z,8.02
2022-12-08T08:41:31.419Z,8.57
2022-12-08T08:43:59.194Z,6.72
2022-12-08T08:46:27.295Z,7.32
2022-12-08T08:48:54.974Z,5.05
2022-12-08T08:51:22.927Z,9.55
2022-12-08T08:53:52.270Z,13.57
2022-12-08T08:56:20.552Z,14.38
2022-12-08T08:58:53.363Z,10.45
2022-12-08T09:01:27.534Z,23.20
2022-12-08T09:03:56.440Z,40.42
2022-12-08T09:06:24.940Z,27.15
2022-12-08T09:08:52.821Z,8.68
2022-12-08T09:11:20.672Z,7.55
2022-12-08T09:13:50.119Z,10.65
2022-12-08T09:16:19.167Z,10.63
2022-12-08T09:18:49.279Z,8.68
2022-12-08T09:21:22.606Z,7.88
2022-12-08T09:23:53.731Z,8.77
2022-12-08T09:26:22.629Z,9.00
2022-12-08T09:28:51.957Z,9.57
2022-12-08T09:31:21.685Z,6.18
2022-12-08T09:33:53.579Z,11.02
2022-12-08T09:36:23.011Z,9.93
2022-12-08T09:38:51.911Z,8.77
2022-12-08T09:41:48.421Z,10.18
2022-12-08T09:44:41.122Z,8.18
2022-12-08T09:47:26.121Z,9.23
2022-12-08T09:50:23.108Z,8.32
2022-12-08T09:53:10.085Z,11.65
2022-12-08T09:55:45.261Z,9.93
2022-12-08T09:58:40.337Z,11.75
2022-12-08T10:01:12.222Z,12.15
2022-12-08T10:03:41.768Z,13.90
2022-12-08T10:06:15.689Z,14.60
2022-12-08T10:08:57.150Z,10.77
2022-12-08T10:11:42.957Z,19.55
2022-12-08T10:14:57.858Z,16.63
2022-12-08T10:17:42.182Z,11.52
2022-12-08T10:20:23.467Z,12.98
2022-12-08T10:23:30.149Z,12.40
2022-12-08T10:26:11.088Z,9.60
2022-12-08T10:28:44.421Z,12.88
2022-12-08T10:31:20.190Z,9.55
2022-12-08T10:34:24.279Z,7.38
2022-12-08T10:36:56.271Z,7.38
2022-12-08T10:39:38.973Z,9.75
2022-12-08T10:42:19.917Z,12.57
2022-12-08T10:45:01.336Z,13.60
2022-12-08T10:47:30.781Z,7.95
2022-12-08T10:50:20.027Z,5.78
2022-12-08T10:53:00.092Z,9.57
2022-12-08T10:55:30.156Z,8.32
2022-12-08T10:57:57.942Z,6.85
2022-12-08T11:00:28.217Z,8.20
2022-12-08T11:02:59.944Z,6.90
2022-12-08T11:05:34.804Z,8.45
2022-12-08T11:08:04.589Z,9.43
2022-12-08T11:10:43.178Z,7.10
2022-12-08T11:13:24.816Z,7.47
2022-12-08T11:15:55.333Z,5.35
2022-12-08T11:18:40.427Z,8.10
2022-12-08T11:21:18.372Z,7.57
2022-12-08T11:23:50.963Z,5.32
2022-12-08T11:26:31.422Z,6.28
2022-12-08T11:28:59.437Z,8.57
2022-12-08T11:31:44.649Z,5.07
2022-12-08T11:34:35.542Z,4.20
2022-12-08T11:37:08.027Z,6.00
2022-12-08T11:39:40.841Z,3.30
2022-12-08T11:42:16.416Z,5.50
2022-12-08T11:47:37.566Z,5.28
2022-12-08T11:50:21.089Z,6.15
2022-12-08T11:52:51.966Z,3.50
2022-12-08T11:55:50.188Z,6.55
2022-12-08T11:58:45.210Z,6.15
2022-12-08T12:01:25.524Z,10.35
2022-12-08T12:04:02.106Z,5.55
2022-12-08T12:06:54.187Z,5.78
2022-12-08T12:09:52.565Z,6.90
2022-12-08T12:13:00.499Z,9.60
2022-12-08T12:15:49.741Z,6.95
2022-12-08T12:18:24.710Z,4.15
2022-12-08T12:21:08.018Z,0.65
2022-12-08T12:23:54.978Z,0.90
2022-12-08T12:26:26.703Z,0.82
2022-12-08T12:29:00.305Z,0.80
2022-12-08T12:31:44.016Z,2.85
2022-12-08T12:34:34.110Z,3.90
2022-12-08T12:37:12.136Z,3.83
2022-12-08T12:40:19.456Z,3.00
2022-12-08T12:42:57.446Z,2.50
2022-12-08T12:45:31.385Z,0.98
2022-12-08T12:47:59.892Z,1.15
2022-12-08T12:50:49.539Z,2.20
2022-12-08T12:53:17.254Z,1.67
2022-12-08T12:56:02.494Z,0.63
2022-12-08T12:58:30.185Z,2.53
2022-12-08T13:01:13.334Z,3.90
2022-12-08T13:03:52.217Z,4.18
2022-12-08T13:06:38.424Z,1.38
2022-12-08T13:09:07.308Z,0.30
2022-12-08T13:11:54.456Z,2.17
2022-12-08T13:14:35.649Z,0.95
2022-12-08T13:17:12.546Z,1.40
2022-12-08T13:19:41.426Z,6.70
2022-12-08T13:23:03.757Z,2.88
2022-12-08T13:25:40.657Z,5.47
2022-12-08T13:28:28.392Z,8.02
2022-12-08T13:31:01.797Z,3.28
2022-12-08T13:33:41.300Z,2.42
2022-12-08T13:36:22.627Z,1.65
2022-12-08T13:38:56.366Z,1.83
2022-12-08T13:41:50.434Z,2.60
2022-12-08T13:47:34.762Z,1.67
2022-12-08T13:59:28.323Z,8.07
2022-12-08T14:02:01.411Z,7.43
2022-12-08T14:05:16.342Z,6.57
2022-12-08T14:07:17.720Z,6.63
2022-12-08T14:09:46.518Z,12.75
2022-12-08T14:12:27.870Z,9.77
2022-12-08T14:15:06.115Z,9.00
2022-12-08T14:17:34.565Z,8.32
2022-12-08T14:20:12.634Z,6.15
2022-12-08T14:22:41.540Z,5.53
2022-12-08T14:25:15.352Z,5.88
2022-12-08T14:27:43.671Z,9.82
2022-12-08T14:30:14.613Z,4.47
2022-12-08T14:32:48.492Z,4.65
2022-12-08T14:35:28.194Z,6.32
2022-12-08T14:37:59.500Z,8.18
2022-12-08T14:40:45.507Z,5.53
2022-12-08T14:43:20.067Z,4.22
2022-12-08T14:45:51.774Z,4.72
2022-12-08T14:48:31.572Z,6.05
2022-12-08T14:51:19.820Z,4.82
2022-12-08T14:54:08.670Z,6.20
2022-12-08T14:56:56.131Z,8.35
2022-12-08T14:59:47.106Z,3.88
2022-12-08T15:02:24.353Z,6.13
2022-12-08T15:05:02.091Z,6.80
2022-12-08T15:07:38.103Z,14.07
2022-12-08T15:10:18.085Z,5.65
2022-12-08T15:13:09.244Z,10.23
2022-12-08T15:15:54.779Z,6.32
2022-12-08T15:18:40.585Z,9.07
2022-12-08T15:21:12.947Z,6.65
2022-12-08T15:23:48.454Z,8.43
2022-12-08T15:26:23.105Z,5.70
2022-12-08T15:28:51.662Z,11.80
2022-12-08T15:31:21.088Z,7.53
2022-12-08T15:33:49.040Z,7.18
2022-12-08T15:36:16.875Z,7.50
2022-12-08T15:38:44.749Z,8.95
2022-12-08T15:41:15.285Z,17.38
2022-12-08T15:43:47.606Z,9.38
2022-12-08T15:46:15.649Z,8.32
2022-12-08T15:48:46.650Z,14.32
2022-12-08T15:51:14.439Z,8.98
2022-12-08T15:53:42.550Z,13.45
2022-12-08T15:56:26.964Z,10.65
2022-12-08T15:58:56.908Z,7.90
2022-12-08T16:01:26.099Z,8.50
2022-12-08T16:09:42.510Z,12.20
2022-12-08T16:15:59.902Z,16.63
2022-12-08T16:18:30.396Z,13.20
2022-12-08T16:24:41.356Z,14.82
2022-12-08T16:36:56.467Z,16.80
2022-12-08T16:39:24.574Z,11.98
2022-12-08T16:42:10.875Z,13.43
2022-12-08T16:44:42.203Z,10.38
2022-12-08T16:47:28.324Z,10.93
2022-12-08T16:49:56.071Z,10.05
2022-12-08T16:52:32.798Z,9.77
2022-12-08T16:55:03.865Z,11.02
2022-12-08T16:57:32.519Z,8.43
2022-12-08T17:00:02.595Z,12.18
2022-12-08T17:02:32.026Z,10.60
2022-12-08T17:05:02.567Z,8.93
2022-12-08T17:07:34.536Z,10.30
2022-12-08T17:10:16.748Z,11.88
2022-12-08T17:12:50.566Z,11.57
2022-12-08T17:15:46.211Z,11.93
2022-12-08T17:18:25.072Z,15.73
2022-12-08T17:21:14.585Z,19.98
2022-12-08T17:23:43.184Z,20.30
2022-12-08T17:26:11.588Z,24.85
2022-12-08T17:28:59.520Z,20.20
2022-12-08T17:31:30.823Z,17.67
2022-12-08T17:34:05.035Z,22.83
2022-12-08T17:36:33.096Z,18.73
2022-12-08T17:39:01.296Z,15.63
2022-12-08T17:41:30.151Z,15.88
2022-12-08T17:43:58.299Z,17.95
2022-12-08T17:46:26.320Z,18.10
2022-12-08T17:48:54.580Z,16.13
2022-12-08T17:51:22.585Z,13.80
2022-12-08T17:53:50.289Z,17.73
2022-12-08T17:56:21.027Z,13.20
2022-12-08T17:58:54.324Z,15.95
2022-12-08T18:01:24.354Z,16.20
2022-12-08T18:03:52.164Z,15.98
2022-12-08T18:06:19.947Z,18.05
2022-12-08T18:08:47.663Z,17.60
2022-12-08T18:11:19.902Z,21.75
2022-12-08T18:13:49.999Z,17.80
2022-12-08T18:16:20.564Z,16.45
2022-12-08T18:18:48.595Z,20.42
2022-12-08T18:21:23.054Z,16.40
2022-12-08T18:23:52.076Z,14.05
2022-12-08T18:26:19.992Z,15.65
2022-12-08T18:28:47.769Z,12.65
2022-12-08T18:31:19.794Z,15.50
2022-12-08T18:33:50.758Z,18.80
2022-12-08T18:36:23.362Z,13.73
2022-12-08T18:38:52.758Z,16.10
2022-12-08T18:41:24.610Z,14.73
2022-12-08T18:43:55.179Z,13.57
2022-12-08T18:46:24.351Z,10.13
2022-12-08T18:48:52.789Z,14.23
2022-12-08T18:51:23.417Z,14.52
2022-12-08T18:53:52.127Z,13.88
2022-12-08T18:56:33.107Z,16.80
2022-12-08T18:59:05.115Z,8.93
2022-12-08T19:01:39.259Z,9.13
2022-12-08T19:06:57.863Z,8.48
2022-12-08T19:09:26.915Z,10.82
2022-12-08T19:11:55.586Z,9.80
2022-12-08T19:14:28.251Z,11.43
2022-12-08T19:16:57.837Z,10.68
2022-12-08T19:19:26.710Z,10.48
2022-12-08T19:21:54.606Z,10.50
2022-12-08T19:24:23.006Z,9.95
2022-12-08T19:26:50.661Z,10.52
2022-12-08T19:29:18.420Z,14.68
2022-12-08T19:31:46.087Z,14.05
2022-12-08T19:34:15.577Z,13.20
2022-12-08T19:36:44.046Z,14.35
2022-12-08T19:39:41.480Z,16.50
2022-12-08T19:42:39.111Z,17.55
2022-12-08T19:45:19.903Z,20.35
2022-12-08T19:47:48.434Z,15.75
2022-12-08T19:50:35.606Z,16.13
2022-12-08T19:53:06.232Z,18.48
2022-12-08T19:55:35.140Z,16.30
2022-12-08T19:58:04.137Z,16.65
2022-12-08T20:00:33.443Z,16.13
2022-12-08T20:03:02.391Z,15.35
2022-12-08T20:05:32.016Z,17.55
2022-12-08T20:08:00.318Z,13.63
2022-12-08T20:10:36.008Z,17.33
2022-12-08T20:13:24.694Z,13.82
2022-12-08T20:15:53.017Z,14.90
2022-12-08T20:18:21.515Z,13.82
2022-12-08T20:20:49.641Z,12.13
2022-12-08T20:23:18.728Z,11.43
2022-12-08T20:25:47.796Z,18.45
2022-12-08T20:28:15.641Z,14.93
2022-12-08T20:30:44.949Z,14.40
2022-12-08T20:33:21.902Z,13.90
2022-12-08T20:36:00.133Z,12.75
2022-12-08T20:38:29.438Z,15.43
2022-12-08T20:40:58.460Z,16.27
2022-12-08T20:43:26.533Z,18.98
2022-12-08T20:45:54.219Z,21.88
2022-12-08T20:48:22.160Z,18.48
2022-12-08T20:50:52.046Z,21.80
2022-12-08T20:53:20.070Z,17.63
2022-12-08T20:55:47.919Z,17.30
2022-12-08T20:58:15.645Z,16.42
2022-12-08T21:00:43.466Z,19.23
2022-12-08T21:03:13.838Z,20.73
2022-12-08T21:05:51.176Z,18.13
2022-12-08T21:08:20.381Z,19.00
2022-12-08T21:10:57.339Z,20.15
2022-12-08T21:13:25.318Z,19.38
2022-12-08T21:15:53.680Z,17.77
2022-12-08T21:18:22.713Z,16.25
2022-12-08T21:20:52.266Z,18.38
2022-12-08T21:23:20.179Z,23.08
2022-12-08T21:25:48.183Z,19.63
2022-12-08T21:28:15.964Z,24.92
2022-12-08T21:30:44.140Z,18.77
2022-12-08T21:33:11.852Z,19.00
2022-12-08T21:35:39.816Z,20.45
2022-12-08T21:38:08.643Z,25.02
2022-12-08T21:40:37.706Z,20.13
2022-12-08T21:43:05.498Z,20.10
2022-12-08T21:45:34.348Z,19.42
2022-12-08T21:48:10.356Z,24.92
2022-12-08T21:50:39.393Z,20.88
2022-12-08T21:53:07.134Z,19.65
2022-12-08T21:55:34.959Z,22.55
2022-12-08T21:58:02.624Z,17.75
2022-12-08T22:00:30.455Z,22.38
2022-12-08T22:02:58.339Z,28.40
2022-12-08T22:05:26.335Z,19.90
2022-12-08T22:07:54.297Z,25.30
2022-12-08T22:10:23.435Z,19.00
2022-12-08T22:12:51.358Z,19.45
2022-12-08T22:15:19.230Z,21.75
2022-12-08T22:17:47.636Z,22.25
2022-12-08T22:20:17.640Z,19.40
2022-12-08T22:22:47.804Z,18.25
2022-12-08T22:25:15.488Z,16.65
2022-12-08T22:27:43.246Z,17.95
2022-12-08T22:30:12.312Z,15.48
2022-12-08T22:32:40.438Z,17.00
2022-12-08T22:35:09.631Z,19.13
2022-12-08T22:37:37.473Z,20.45
2022-12-08T22:40:06.706Z,24.08
2022-12-08T22:42:34.650Z,20.70
2022-12-08T22:45:02.383Z,20.67
2022-12-08T22:47:30.077Z,22.33
2022-12-08T22:49:57.709Z,24.30
2022-12-08T22:52:25.388Z,21.23
2022-12-08T22:54:53.075Z,20.23
2022-12-08T22:57:20.953Z,18.20
2022-12-08T22:59:48.564Z,19.40
2022-12-08T23:02:16.178Z,21.42
2022-12-08T23:04:46.419Z,22.13
2022-12-08T23:07:14.438Z,23.52
2022-12-08T23:09:42.227Z,22.80
2022-12-08T23:12:09.864Z,22.45
2022-12-08T23:14:37.501Z,25.45
2022-12-08T23:17:05.484Z,27.10
2022-12-08T23:19:36.840Z,23.35
2022-12-08T23:22:04.759Z,26.70
2022-12-08T23:24:32.479Z,22.90
2022-12-08T23:27:00.296Z,22.25
2022-12-08T23:29:27.966Z,18.35
2022-12-08T23:31:56.239Z,20.45
2022-12-08T23:34:24.212Z,20.67
2022-12-08T23:36:52.095Z,22.92
2022-12-08T23:39:19.775Z,19.23
2022-12-08T23:41:47.567Z,20.67
2022-12-08T23:44:15.388Z,24.33
2022-12-08T23:46:43.187Z,19.60
2022-12-08T23:49:11.026Z,19.63
2022-12-08T23:51:38.680Z,22.23
2022-12-08T23:54:07.553Z,19.40
2022-12-08T23:56:35.446Z,20.65
2022-12-08T23:59:03.148Z,21.60
